Latest Weather Observations for Perth Airport

IDW60801

Issued at 9:53 am WST Tuesday 16 August 2022 (issued every 10 minutes, with the page automatically refreshed every 10 minutes)

About weather observations | Map of weather stations | Latest weather observations for WA | Other Formats
Station Details ID: 009021 Name: PERTH AIRPORT Lat: -31.93 Lon: 115.98 Height: 15.4 m
Data from the previous 72 hours. | See also: Recent months at Perth Airport
Date/Time
WST
Temp
°C
App
Temp
°C
Dew
Point
°C
Rel
Hum
%
Delta-T
°C
Wind Press
QNH
hPa
Press
MSL
hPa
Rain since
9am
mm
Dir  Spd
km/h
Gust
km/h
Spd
kts
Gust
kts
16/09:35am 15.4 11.5 13.2 87 1.2 WSW 26 43 14 23 1006.5 1006.5 0.2
16/09:30am 15.9 12.5 13.7 87 1.2 WSW 24 39 13 21 1006.3 1006.3 0.0
16/09:00am 16.4 12.9 14.4 88 1.1 W 26 41 14 22 1005.6 1005.6 13.2
16/08:42am 17.9 14.5 13.8 77 2.3 NW 24 33 13 18 1005.1 1005.1 13.0
16/08:30am 17.7 15.8 14.2 80 2.0 NW 17 26 9 14 1004.8 1004.8 13.0
16/08:00am 17.5 16.4 14.2 81 1.9 NW 13 19 7 10 1004.3 1004.3 13.0
16/07:30am 17.6 15.6 13.9 79 2.1 WNW 17 20 9 11 1004.1 1004.1 13.0
16/07:00am 17.5 15.9 14.0 80 2.0 WNW 15 22 8 12 1004.0 1004.0 13.0
16/06:30am 17.6 16.3 14.9 84 1.6 W 15 22 8 12 1003.6 1003.6 13.0
16/06:00am 17.4 16.8 15.6 89 1.1 W 13 19 7 10 1002.9 1002.9 13.0
16/05:37am 17.6 16.8 16.1 91 0.9 W 15 24 8 13 1002.9 1002.9 13.0
16/05:30am 17.5 16.3 16.0 91 0.9 W 17 26 9 14 1002.9 1002.9 13.0
16/05:24am 17.4 17.3 15.9 91 0.9 W 11 26 6 14 1002.8 1002.8 13.0
16/05:00am 17.7 17.6 16.0 90 1.0 NW 11 15 6 8 1002.6 1002.6 12.2
16/04:30am 17.9 17.9 16.2 90 1.0 WNW 11 13 6 7 1002.6 1002.6 12.2
16/04:00am 18.3 17.3 16.6 90 1.0 WNW 17 28 9 15 1002.6 1002.6 12.0
16/03:30am 18.6 16.6 17.3 92 0.8 WNW 24 35 13 19 1002.6 1002.6 12.0
16/03:00am 18.7 16.9 17.9 95 0.5 NNW 24 30 13 16 1002.6 1002.6 12.0
16/02:30am 18.4 16.9 17.6 95 0.5 NNW 22 30 12 16 1002.4 1002.4 12.0
16/02:00am 18.2 17.1 17.4 95 0.5 N 19 30 10 16 1002.5 1002.5 11.8
16/01:38am 18.2 16.5 17.2 94 0.6 N 22 30 12 16 1002.7 1002.7 11.8
16/01:30am 18.3 16.3 17.3 94 0.6 N 24 33 13 18 1002.6 1002.6 11.8
16/01:17am 18.4 16.4 17.4 94 0.6 N 24 33 13 18 1002.8 1002.8 11.6
16/01:00am 18.4 16.4 17.4 94 0.6 N 24 35 13 19 1002.7 1002.7 11.6
16/12:30am 18.2 16.2 17.4 95 0.5 N 24 32 13 17 1002.8 1002.8 11.6
16/12:00am 18.1 15.3 17.3 95 0.5 NNE 28 32 15 17 1002.4 1002.4 11.4
 
Date/Time
WST
Temp
°C
App
Temp
°C
Dew
Point
°C
Rel
Hum
%
Delta-T
°C
Wind Press
QNH
hPa
Press
MSL
hPa
Rain since
9am
mm
Dir  Spd
km/h
Gust
km/h
Spd
kts
Gust
kts
15/11:30pm 18.0 15.8 17.0 94 0.6 NNE 24 33 13 18 1003.4 1003.4 10.8
15/11:00pm 17.9 16.4 16.8 93 0.7 N 20 28 11 15 1004.2 1004.2 9.6
15/10:49pm 17.9 16.4 16.8 93 0.7 N 20 28 11 15 1004.4 1004.4 9.0
15/10:30pm 17.8 16.3 16.7 93 0.7 NNE 20 30 11 16 1004.5 1004.5 8.2
15/10:00pm 17.1 16.6 16.0 93 0.7 NNE 13 15 7 8 1004.5 1004.5 7.6
15/09:30pm 16.8 16.3 15.8 94 0.6 NE 13 17 7 9 1004.6 1004.6 7.6
15/09:00pm 16.5 15.5 15.5 94 0.6 NE 15 19 8 10 1005.7 1005.7 7.6
15/08:30pm 16.3 15.5 15.2 93 0.6 NE 13 15 7 8 1006.4 1006.4 7.6
15/08:06pm 16.3 15.9 15.2 93 0.6 NE 11 17 6 9 1006.8 1006.8 7.4
15/08:00pm 16.3 15.2 15.2 93 0.6 NE 15 17 8 9 1006.2 1006.2 7.2
15/07:43pm 16.5 16.0 15.0 91 0.9 NW 11 13 6 7 1007.4 1007.4 5.0
15/07:30pm 16.5 16.0 14.9 90 0.9 NNE 11 15 6 8 1006.1 1006.1 3.8
15/07:00pm 16.5 14.2 14.7 89 1.0 NE 20 26 11 14 1005.8 1005.8 3.2
15/06:30pm 16.6 15.2 14.6 88 1.1 NE 15 26 8 14 1006.7 1006.7 2.6
15/06:14pm 16.7 16.1 14.5 87 1.3 NE 11 13 6 7 1006.9 1006.9 2.0
15/06:00pm 17.2 16.6 14.7 85 1.4 NE 11 13 6 7 1006.6 1006.6 1.4
15/05:30pm 17.7 19.0 14.2 80 2.0 CALM 0 0 0 0 1007.3 1007.3 1.0
15/05:00pm 20.3 18.9 13.3 64 4.0 ESE 13 15 7 8 1006.4 1006.4 0.0
15/04:30pm 21.2 20.8 13.1 60 4.6 ESE 7 11 4 6 1006.9 1006.9 0.0
15/04:00pm 21.6 21.7 12.7 57 5.1 SW 4 7 2 4 1007.2 1007.2 0.0
15/03:30pm 21.4 21.0 12.5 57 5.0 WNW 6 11 3 6 1007.8 1007.8 0.0
15/03:00pm 21.6 19.3 11.9 54 5.4 WNW 15 20 8 11 1008.4 1008.4 0.0
15/02:30pm 22.0 19.5 12.3 54 5.5 WNW 17 22 9 12 1008.8 1008.8 0.0
15/02:00pm 23.3 19.2 10.0 43 7.3 NW 22 32 12 17 1008.6 1008.6 0.0
15/01:30pm 23.3 18.1 10.4 44 7.1 NNW 28 35 15 19 1009.2 1009.2 0.0
15/01:00pm 22.8 18.3 9.9 44 7.0 N 24 35 13 19 1009.6 1009.6 0.0
15/12:30pm 22.6 16.7 11.0 48 6.4 N 33 44 18 24 1009.8 1009.8 0.0
15/12:20pm 21.9 16.5 11.0 50 6.0 N 30 50 16 27 1009.8 1009.8 0.0
15/12:00pm 21.3 16.6 10.8 51 5.8 N 26 33 14 18 1010.7 1010.7 0.0
15/11:30am 20.6 15.3 9.8 50 5.8 NNE 28 35 15 19 1011.2 1011.2 0.0
15/11:00am 19.8 14.4 9.4 51 5.5 NNE 28 37 15 20 1011.6 1011.6 0.0
15/10:30am 18.7 13.5 8.7 52 5.2 NNE 26 33 14 18 1012.4 1012.4 0.0
15/10:00am 18.1 12.8 8.4 53 5.0 NNE 26 35 14 19 1012.9 1012.9 0.0
15/09:30am 17.4 13.8 8.3 55 4.7 NNE 17 20 9 11 1013.1 1013.1 0.0
15/09:00am 16.7 13.0 7.9 56 4.4 NNE 17 22 9 12 1013.7 1013.7 0.0
15/08:30am 15.5 12.9 7.8 60 3.9 NE 11 15 6 8 1014.1 1014.1 0.0
15/08:00am 13.6 10.4 6.9 64 3.2 NE 13 20 7 11 1014.4 1014.4 0.0
15/07:30am 12.1 8.4 6.4 68 2.7 ENE 15 17 8 9 1014.4 1014.4 0.0
15/07:00am 11.7 7.6 6.2 69 2.6 NE 17 30 9 16 1014.4 1014.4 0.0
15/06:30am 11.8 8.1 6.3 69 2.6 NE 15 22 8 12 1014.4 1014.4 0.0
15/06:00am 12.0 8.0 6.5 69 2.6 NE 17 20 9 11 1014.4 1014.4 0.0
15/05:30am 11.6 8.3 6.5 71 2.4 ENE 13 19 7 10 1014.4 1014.4 0.0
15/05:00am 12.0 8.7 6.5 69 2.6 ENE 13 17 7 9 1014.7 1014.7 0.0
15/04:30am 13.3 10.0 6.6 64 3.2 ENE 13 15 7 8 1014.7 1014.7 0.0
15/04:00am 13.5 9.5 6.8 64 3.2 NE 17 26 9 14 1014.8 1014.8 0.0
15/03:30am 13.5 11.1 6.8 64 3.2 E 9 11 5 6 1014.9 1014.9 0.0
15/03:00am 13.3 9.0 6.9 65 3.1 NE 19 28 10 15 1015.2 1015.2 0.0
15/02:30am 13.1 9.2 7.1 67 2.9 NE 17 20 9 11 1015.8 1015.8 0.0
15/02:00am 11.6 9.0 7.9 78 1.8 NE 11 13 6 7 1016.3 1016.3 0.0
15/01:30am 10.3 7.6 7.2 81 1.5 ENE 11 13 6 7 1016.7 1016.7 0.0
15/01:00am 10.9 8.2 7.2 78 1.8 ENE 11 13 6 7 1016.8 1016.8 0.0
15/12:30am 11.6 8.6 7.5 76 2.0 ENE 13 15 7 8 1017.1 1017.1 0.0
15/12:00am 13.1 9.7 7.8 70 2.6 ENE 15 17 8 9 1017.3 1017.3 0.0
 
Date/Time
WST
Temp
°C
App
Temp
°C
Dew
Point
°C
Rel
Hum
%
Delta-T
°C
Wind Press
QNH
hPa
Press
MSL
hPa
Rain since
9am
mm
Dir  Spd
km/h
Gust
km/h
Spd
kts
Gust
kts
14/11:30pm 13.7 10.0 7.9 68 2.9 NE 17 24 9 13 1017.6 1017.6 0.0
14/11:00pm 13.8 10.2 8.2 69 2.8 NE 17 30 9 16 1017.8 1017.8 0.0
14/10:30pm 12.3 9.9 8.6 78 1.8 NE 11 13 6 7 1018.0 1018.0 0.0
14/10:00pm 12.7 10.7 8.8 77 1.9 ENE 9 11 5 6 1018.1 1018.1 0.0
14/09:30pm 12.5 10.1 8.8 78 1.9 ENE 11 13 6 7 1018.1 1018.1 0.0
14/09:00pm 13.3 11.4 9.0 75 2.2 NNE 9 11 5 6 1018.0 1018.0 0.0
14/08:30pm 14.1 12.2 9.1 72 2.5 NE 9 11 5 6 1017.9 1017.9 0.0
14/08:00pm 14.8 12.3 9.6 71 2.7 ENE 13 15 7 8 1017.9 1017.9 0.0
14/07:30pm 13.6 12.8 9.8 78 2.0 E 4 11 2 6 1017.8 1017.8 0.0
14/07:00pm 13.6 12.2 9.6 77 2.0 E 7 9 4 5 1017.7 1017.7 0.0
14/06:30pm 14.4 12.2 9.4 72 2.6 E 11 13 6 7 1017.5 1017.5 0.0
14/06:00pm 15.2 13.8 9.6 69 2.9 NNE 7 7 4 4 1017.5 1017.5 0.0
14/05:30pm 16.7 14.8 9.1 61 3.9 NNE 9 9 5 5 1017.6 1017.6 0.0
14/05:00pm 18.2 16.2 8.5 53 5.0 N 9 11 5 6 1017.4 1017.4 0.0
14/04:30pm 18.6 16.4 7.7 49 5.6 N 9 13 5 7 1017.2 1017.2 0.0
14/04:00pm 18.2 15.5 7.3 49 5.5 N 11 15 6 8 1017.1 1017.1 0.0
14/03:30pm 19.1 16.6 8.1 49 5.7 NNE 11 15 6 8 1017.3 1017.3 0.0
14/03:00pm 18.3 15.3 7.7 50 5.4 NNE 13 15 7 8 1017.6 1017.6 0.0
14/02:30pm 18.8 16.2 7.9 49 5.6 NE 11 17 6 9 1017.5 1017.5 0.0
14/02:00pm 18.7 15.8 8.1 50 5.4 N 13 19 7 10 1017.6 1017.6 0.0
14/01:30pm 18.9 17.4 8.6 51 5.3 NNW 6 17 3 9 1017.7 1017.7 0.0
14/01:00pm 18.8 16.1 7.3 47 5.8 NW 11 19 6 10 1017.9 1017.9 0.0
14/12:30pm 18.8 16.2 7.9 49 5.6 NE 11 15 6 8 1018.1 1018.1 0.0
14/12:00pm 18.5 15.7 8.5 52 5.2 N 13 17 7 9 1018.5 1018.5 0.0
14/11:30am 17.1 14.9 7.7 54 4.7 ENE 9 13 5 7 1018.7 1018.7 0.0
14/11:00am 17.2 14.9 8.9 58 4.3 ENE 11 17 6 9 1018.9 1018.9 0.0
14/10:30am 16.4 13.0 9.1 62 3.8 ENE 17 19 9 10 1019.1 1019.1 0.0
14/10:00am 15.0 13.2 10.8 76 2.2 NNE 11 19 6 10 1019.2 1019.2 0.0
14/09:30am 14.4 12.6 10.8 79 1.9 NE 11 17 6 9 1019.1 1019.1 0.0
14/09:00am 12.2 9.9 10.4 89 0.9 ENE 13 15 7 8 1019.1 1019.1 16.2
14/08:30am 12.0 10.5 10.7 92 0.7 N 9 11 5 6 1019.0 1019.0 16.2
14/08:00am 9.5 9.3 8.9 96 0.3 CALM 0 0 0 0 1018.6 1018.6 16.2
14/07:30am 7.7 7.0 7.0 95 0.3 CALM 0 0 0 0 1018.1 1018.1 16.2
14/07:00am 7.5 5.6 6.8 95 0.3 E 6 11 3 6 1017.7 1017.7 16.2
14/06:30am 7.9 5.5 7.1 95 0.4 N 9 9 5 5 1017.0 1017.0 16.2
14/06:00am 8.4 6.1 7.6 95 0.4 NNE 9 11 5 6 1016.5 1016.5 16.2
14/05:30am 8.9 6.8 8.1 95 0.4 N 9 9 5 5 1016.0 1016.0 16.2
14/05:00am 9.5 7.9 8.7 95 0.4 NNE 7 11 4 6 1015.5 1015.5 16.2
14/04:30am 9.1 7.0 8.3 95 0.4 NNE 9 11 5 6 1015.3 1015.3 16.2
14/04:00am 8.9 8.5 8.1 95 0.4 CALM 0 0 0 0 1015.1 1015.1 16.0
14/03:30am 9.2 7.1 8.4 95 0.4 NE 9 9 5 5 1015.0 1015.0 16.0
14/03:00am 7.8 5.4 6.9 94 0.4 ENE 9 11 5 6 1015.1 1015.1 16.0
14/02:30am 7.9 5.5 7.0 94 0.4 ENE 9 11 5 6 1015.0 1015.0 16.0
14/02:00am 8.6 6.3 7.5 93 0.5 ENE 9 9 5 5 1014.5 1014.5 16.0
14/01:30am 8.7 6.4 7.5 92 0.6 ESE 9 11 5 6 1014.6 1014.6 16.0
14/01:00am 9.4 8.9 7.8 90 0.8 CALM 0 0 0 0 1014.3 1014.3 16.0
14/12:30am 10.8 8.8 8.6 86 1.1 WSW 9 11 5 6 1014.4 1014.4 16.0
14/12:00am 12.3 10.5 9.5 83 1.4 WSW 9 13 5 7 1014.3 1014.3 16.0
 
Date/Time
WST
Temp
°C
App
Temp
°C
Dew
Point
°C
Rel
Hum
%
Delta-T
°C
Wind Press
QNH
hPa
Press
MSL
hPa
Rain since
9am
mm
Dir  Spd
km/h
Gust
km/h
Spd
kts
Gust
kts
13/11:30pm 12.6 10.4 9.4 81 1.6 WSW 11 17 6 9 1014.2 1014.2 16.0
13/11:00pm 13.3 10.0 9.4 77 2.0 WSW 17 24 9 13 1013.9 1013.9 16.0
13/10:30pm 14.3 11.9 10.1 76 2.2 SW 13 19 7 10 1013.5 1013.5 16.0
13/10:00pm 14.1 10.9 10.1 77 2.1 WSW 17 24 9 13 1013.1 1013.1 16.0
13/09:30pm 14.4 11.4 10.8 79 1.9 WSW 17 22 9 12 1012.8 1012.8 16.0
13/09:00pm 14.5 11.1 11.3 81 1.7 WSW 20 30 11 16 1012.2 1012.2 16.0
13/08:30pm 14.2 12.2 11.5 84 1.4 W 13 19 7 10 1011.4 1011.4 15.8
13/08:00pm 12.4 11.4 11.0 91 0.7 NNE 7 15 4 8 1010.8 1010.8 15.6
13/07:30pm 13.5 12.3 11.7 89 1.0 NW 9 13 5 7 1010.1 1010.1 15.6
13/07:23pm 13.3 11.7 11.4 88 1.0 NW 11 15 6 8 1010.0 1010.0 15.6
13/07:08pm 13.4 10.9 10.9 85 1.3 NNW 15 20 8 11 1009.7 1009.7 14.8
13/07:00pm 13.5 10.6 10.9 84 1.4 NNW 17 24 9 13 1009.4 1009.4 14.2
13/06:30pm 13.0 10.3 10.2 83 1.4 NNW 15 19 8 10 1009.1 1009.1 14.2
13/06:00pm 13.2 8.4 10.2 82 1.6 WNW 26 41 14 22 1008.8 1008.8 14.2
13/05:49pm 13.6 9.7 10.8 83 1.5 WNW 22 54 12 29 1009.3 1009.3 14.0
13/05:47pm 13.6 10.1 11.0 84 1.4 WNW 20 54 11 29 1009.4 1009.4 13.6
13/05:45pm 13.5 10.6 10.9 84 1.4 WNW 17 28 9 15 1008.7 1008.7 12.8
13/05:30pm 14.3 11.7 10.7 79 1.9 WNW 15 28 8 15 1008.3 1008.3 12.8
13/05:00pm 14.7 8.9 10.7 77 2.1 NNW 32 44 17 24 1007.6 1007.6 12.4
13/04:39pm 15.6 10.6 10.8 73 2.6 NW 28 46 15 25 1007.5 1007.5 12.4
13/04:30pm 15.6 11.0 11.0 74 2.5 NW 26 37 14 20 1007.3 1007.3 12.2
13/04:11pm 15.4 10.0 10.8 74 2.4 WNW 30 59 16 32 1007.6 1007.6 12.0
13/04:00pm 16.0 13.6 13.8 87 1.2 NW 19 39 10 21 1006.9 1006.9 12.0
13/03:30pm 14.7 12.6 13.6 93 0.6 N 17 26 9 14 1006.7 1006.7 12.0
13/03:00pm 13.9 9.5 13.0 94 0.5 NNE 28 37 15 20 1006.4 1006.4 12.0
13/02:53pm 13.7 10.0 12.8 94 0.5 NNE 24 32 13 17 1006.6 1006.6 11.8
13/02:30pm 13.3 10.2 12.2 93 0.6 N 20 28 11 15 1006.4 1006.4 11.6
13/02:00pm 12.5 6.8 11.2 92 0.7 N 32 44 17 24 1006.4 1006.4 10.6
13/01:50pm 12.4 7.7 10.8 90 0.8 N 26 41 14 22 1006.3 1006.3 6.2
13/01:48pm 12.4 8.5 10.8 90 0.8 N 22 39 12 21 1006.5 1006.5 5.4
13/01:44pm 12.4 8.9 10.8 90 0.8 N 20 30 11 16 1006.1 1006.1 5.2
13/01:30pm 12.5 8.2 10.7 89 0.9 N 24 35 13 19 1005.9 1005.9 5.2
13/01:00pm 12.7 6.6 9.9 83 1.4 N 32 39 17 21 1006.5 1006.5 2.8
13/12:30pm 13.2 7.0 9.3 77 2.0 NNE 32 48 17 26 1006.5 1006.5 2.6
13/12:00pm 12.7 6.4 9.0 78 1.9 NNE 32 41 17 22 1007.0 1007.0 2.2
13/11:30am 13.2 5.6 7.4 68 2.8 NNE 37 48 20 26 1007.9 1007.9 0.8
13/11:22am 14.1 7.3 6.7 61 3.6 NNE 32 48 17 26 1007.7 1007.7 0.4
13/11:00am 16.4 10.6 2.4 39 6.3 NNE 22 28 12 15 1008.5 1008.5 0.0
13/10:30am 16.7 10.7 1.2 35 6.8 NNE 22 30 12 16 1007.6 1007.6 0.0
13/10:00am 16.4 9.9 0.5 34 6.9 NNE 24 30 13 16 1008.3 1008.3 0.0

Other formats

Comma delimited format used in spreadsheet applications
http://www.bom.gov.au/fwo/IDW60801/IDW60801.94610.axf

JavaScript Object Notation format (JSON) in row-major order
http://www.bom.gov.au/fwo/IDW60801/IDW60801.94610.json

Data quality

Most of these data are generated automatically and are frequently updated. Quality checks on data are not normally performed. It is possible for incorrect values to appear. Refer to information at About Latest Weather Observations and please check the disclaimer before using these data.